Time;durP1;ratioP1;P1;durP2;ratioP2;P2;SDS_P1;SDS_P2;PMS_P1;PMS_P2;Temp;Humidity;BMP_temperature;BMP_pressure;BME280_temperature;BME280_humidity;BME280_pressure;Samples;Min_cycle;Max_cycle;Signal;HPM_P1;HPM_P2
2022/12/29 04:00:45;;;;;;;4.53;1.30;;;10.80;99.90;;;;;;6004255;23;20026;-84
2022/12/29 04:03:11;;;;;;;6.20;1.35;;;10.80;99.90;;;;;;6044935;23;20030;-83
2022/12/29 04:05:37;;;;;;;6.50;1.27;;;10.80;99.90;;;;;;6046842;23;20026;-82
2022/12/29 04:08:02;;;;;;;5.18;1.10;;;10.80;99.90;;;;;;6046708;23;20349;-81
2022/12/29 04:10:28;;;;;;;4.45;1.27;;;10.80;99.90;;;;;;6022098;23;20425;-82
2022/12/29 04:12:53;;;;;;;4.47;1.27;;;10.80;99.90;;;;;;6045574;23;20019;-82
2022/12/29 04:15:19;;;;;;;6.20;1.25;;;10.70;99.90;;;;;;6021873;23;20077;-83
2022/12/29 04:17:45;;;;;;;5.28;1.30;;;10.70;99.90;;;;;;6071068;23;19995;-83
2022/12/29 04:23:12;;;;;;;2.67;0.80;;;10.60;99.90;;;;;;6071845;23;20025;-82
2022/12/29 04:25:38;;;;;;;3.72;0.93;;;10.60;99.90;;;;;;6045384;23;20500;-83
2022/12/29 04:28:03;;;;;;;4.10;0.80;;;10.50;99.90;;;;;;6071137;23;20034;-82
2022/12/29 04:30:29;;;;;;;2.97;0.80;;;10.50;99.90;;;;;;6070708;23;20062;-82
2022/12/29 04:32:55;;;;;;;4.13;0.80;;;10.50;99.90;;;;;;6045254;23;20010;-82
2022/12/29 04:35:20;;;;;;;3.28;1.08;;;10.40;99.90;;;;;;6070095;23;20069;-83
2022/12/29 04:37:46;;;;;;;4.47;1.00;;;10.40;99.90;;;;;;6070753;23;20428;-83
2022/12/29 04:40:12;;;;;;;5.35;1.40;;;10.30;99.90;;;;;;6046059;23;20021;-83
2022/12/29 04:42:38;;;;;;;3.95;1.05;;;10.30;99.90;;;;;;6071211;23;20011;-84
2022/12/29 04:45:05;;;;;;;9.75;2.30;;;10.30;99.90;;;;;;6070199;23;20089;-81
2022/12/29 04:47:31;;;;;;;4.95;1.20;;;10.30;99.90;;;;;;6044974;23;20007;-83
2022/12/29 04:49:56;;;;;;;5.28;1.40;;;10.30;99.90;;;;;;6070342;23;20014;-83
2022/12/29 04:52:22;;;;;;;5.85;1.40;;;10.20;99.90;;;;;;6070095;23;20025;-84
2022/12/29 04:54:48;;;;;;;4.95;1.30;;;10.20;99.90;;;;;;6044951;23;20064;-84
2022/12/29 04:57:13;;;;;;;3.20;1.33;;;10.30;99.90;;;;;;6044679;23;20103;-83
2022/12/29 04:59:39;;;;;;;6.57;1.10;;;10.30;99.90;;;;;;6044737;23;20011;-83
2022/12/29 05:02:04;;;;;;;5.72;1.35;;;10.30;99.90;;;;;;6044372;23;20018;-83
2022/12/29 05:04:30;;;;;;;7.22;1.52;;;10.30;99.90;;;;;;6021481;23;20050;-84
2022/12/29 05:06:57;;;;;;;7.03;1.17;;;10.30;99.90;;;;;;6046113;23;20086;-84
2022/12/29 05:09:23;;;;;;;10.65;1.75;;;10.30;99.90;;;;;;6070605;23;20019;-81
2022/12/29 05:11:49;;;;;;;8.77;1.65;;;10.30;99.90;;;;;;6021029;23;20109;-82
2022/12/29 05:14:15;;;;;;;13.32;2.00;;;10.20;99.90;;;;;;6070695;23;20441;-82
2022/12/29 05:16:41;;;;;;;11.80;1.65;;;10.20;99.90;;;;;;6045189;23;20042;-82
2022/12/29 05:19:06;;;;;;;13.52;3.25;;;10.20;99.90;;;;;;6045272;23;20031;-83
2022/12/29 05:21:32;;;;;;;9.43;1.80;;;10.10;99.90;;;;;;6070157;23;20441;-83
2022/12/29 05:23:57;;;;;;;11.35;1.73;;;10.10;99.90;;;;;;6070869;23;20019;-82
2022/12/29 05:26:23;;;;;;;11.05;1.40;;;10.10;99.90;;;;;;6070453;23;20019;-84
2022/12/29 05:28:49;;;;;;;9.68;2.28;;;10.00;99.90;;;;;;6021325;23;20011;-84
2022/12/29 05:31:14;;;;;;;7.63;1.50;;;10.00;99.90;;;;;;6044708;23;20097;-82
2022/12/29 05:33:40;;;;;;;15.25;2.17;;;10.00;99.90;;;;;;6044874;23;20015;-83
2022/12/29 05:36:07;;;;;;;8.32;1.40;;;9.90;99.90;;;;;;6045240;23;20017;-83
2022/12/29 05:38:33;;;;;;;11.02;1.63;;;10.00;99.90;;;;;;6022695;23;20014;-83
2022/12/29 05:40:59;;;;;;;15.15;2.45;;;10.00;99.90;;;;;;6045544;23;20010;-83
2022/12/29 05:43:25;;;;;;;9.63;2.20;;;10.00;99.90;;;;;;6070253;23;20050;-83
2022/12/29 05:45:52;;;;;;;8.35;1.25;;;9.90;99.90;;;;;;6044285;23;20015;-82
2022/12/29 05:48:18;;;;;;;8.32;1.35;;;10.00;99.90;;;;;;6070040;23;20442;-83
2022/12/29 05:50:48;;;;;;;10.48;2.17;;;10.00;99.90;;;;;;6070544;23;20025;-82
2022/12/29 05:53:13;;;;;;;11.50;2.40;;;9.90;99.90;;;;;;6046352;23;20400;-83
2022/12/29 05:55:39;;;;;;;7.30;1.90;;;10.00;99.90;;;;;;6072365;23;20011;-82
2022/12/29 05:58:05;;;;;;;7.78;1.33;;;10.00;99.90;;;;;;6072576;23;20333;-82
2022/12/29 06:00:31;;;;;;;5.65;1.52;;;10.00;99.90;;;;;;6047078;23;20018;-82
2022/12/29 06:02:56;;;;;;;8.20;1.13;;;10.00;99.90;;;;;;6072280;23;20020;-82
2022/12/29 06:05:22;;;;;;;6.40;1.23;;;10.00;99.90;;;;;;6072133;23;20070;-85
2022/12/29 06:07:47;;;;;;;12.52;1.65;;;10.00;99.90;;;;;;6046101;23;20468;-82
2022/12/29 06:10:13;;;;;;;8.50;1.63;;;10.00;99.90;;;;;;6045629;23;20019;-83
2022/12/29 06:12:39;;;;;;;8.52;1.45;;;9.90;99.90;;;;;;6046090;23;20026;-83
2022/12/29 06:15:05;;;;;;;11.65;1.60;;;9.90;99.90;;;;;;6072263;23;20046;-82
2022/12/29 06:17:30;;;;;;;10.85;2.00;;;9.90;99.90;;;;;;6046211;23;20062;-84
2022/12/29 06:19:56;;;;;;;11.93;2.70;;;10.00;99.90;;;;;;6046382;23;20019;-84
2022/12/29 06:22:22;;;;;;;15.23;2.80;;;9.90;99.90;;;;;;6046283;23;20019;-83
2022/12/29 06:24:47;;;;;;;11.38;2.05;;;9.90;99.90;;;;;;6046845;23;20011;-82
2022/12/29 06:27:13;;;;;;;13.35;2.38;;;9.90;99.90;;;;;;6071694;23;20011;-83
2022/12/29 06:29:40;;;;;;;13.50;2.42;;;9.90;99.90;;;;;;6071955;23;20341;-82
2022/12/29 06:32:06;;;;;;;17.52;2.30;;;9.90;99.90;;;;;;6071165;23;20011;-80
2022/12/29 06:34:32;;;;;;;9.55;1.95;;;9.90;99.90;;;;;;6071804;23;20331;-83
2022/12/29 06:36:57;;;;;;;10.70;1.50;;;10.00;99.90;;;;;;6071939;23;20011;-82
2022/12/29 06:39:23;;;;;;;9.68;1.60;;;10.00;99.90;;;;;;6071715;23;20018;-83
2022/12/29 06:41:52;;;;;;;10.18;1.90;;;10.00;99.90;;;;;;6071177;23;20453;-82
2022/12/29 06:44:18;;;;;;;11.48;1.80;;;10.00;99.90;;;;;;6071510;23;20015;-82
2022/12/29 06:46:43;;;;;;;9.70;1.55;;;10.00;99.90;;;;;;6071972;23;20017;-84
2022/12/29 06:49:09;;;;;;;10.13;1.70;;;10.10;99.90;;;;;;6046621;23;20003;-84
2022/12/29 06:51:35;;;;;;;8.55;1.08;;;10.00;99.90;;;;;;6045917;23;20015;-84
2022/12/29 06:54:00;;;;;;;9.57;1.75;;;10.00;99.90;;;;;;6071979;23;20011;-84
2022/12/29 06:56:26;;;;;;;10.35;1.60;;;10.00;99.90;;;;;;6071034;23;20013;-83
2022/12/29 06:58:52;;;;;;;11.80;2.20;;;10.00;99.90;;;;;;6072202;23;20017;-83
2022/12/29 07:01:17;;;;;;;13.75;1.92;;;10.00;99.90;;;;;;6022059;23;20019;-85
2022/12/29 07:03:43;;;;;;;12.13;1.85;;;10.00;99.90;;;;;;6045841;23;20081;-83
2022/12/29 07:06:09;;;;;;;10.30;1.67;;;10.00;99.90;;;;;;6072786;23;20478;-83
2022/12/29 07:08:35;;;;;;;11.43;1.40;;;10.00;99.90;;;;;;6047740;23;20011;-84
2022/12/29 07:11:00;;;;;;;12.88;1.85;;;9.90;99.90;;;;;;6071867;23;19998;-84
2022/12/29 07:13:26;;;;;;;10.40;1.80;;;9.90;99.90;;;;;;6046484;23;20011;-84
2022/12/29 07:15:52;;;;;;;12.43;2.67;;;9.90;99.90;;;;;;6071367;23;20082;-83
2022/12/29 07:18:17;;;;;;;6.75;1.55;;;9.90;99.90;;;;;;6070748;23;20167;-83
2022/12/29 07:20:43;;;;;;;15.07;2.67;;;9.90;99.90;;;;;;6070848;23;20022;-82
2022/12/29 07:23:09;;;;;;;13.10;2.03;;;9.90;99.90;;;;;;6046957;23;20070;-87
2022/12/29 07:25:35;;;;;;;9.77;2.78;;;10.00;99.90;;;;;;6046375;23;20106;-85
2022/12/29 07:28:02;;;;;;;16.27;2.38;;;9.90;99.90;;;;;;6071887;23;20449;-84
2022/12/29 07:30:28;;;;;;;11.25;2.03;;;9.90;99.90;;;;;;6045940;23;20018;-84
2022/12/29 07:32:53;;;;;;;11.10;2.42;;;9.90;99.90;;;;;;6071081;23;20066;-84
2022/12/29 07:35:19;;;;;;;9.82;1.77;;;9.90;99.90;;;;;;6046734;23;20019;-83
2022/12/29 07:37:45;;;;;;;11.48;1.80;;;9.90;99.90;;;;;;6046870;23;20022;-83
2022/12/29 07:40:11;;;;;;;12.05;1.80;;;9.90;99.90;;;;;;6022373;23;20011;-86
2022/12/29 07:42:36;;;;;;;9.18;1.77;;;9.90;99.90;;;;;;6046158;23;20090;-84
2022/12/29 07:45:03;;;;;;;11.63;2.40;;;9.90;99.90;;;;;;6071325;23;20336;-82
2022/12/29 07:47:28;;;;;;;11.07;1.50;;;9.90;99.90;;;;;;6045690;23;20023;-84
2022/12/29 07:49:54;;;;;;;10.45;1.50;;;9.90;99.90;;;;;;6071598;23;20026;-85
2022/12/29 07:52:20;;;;;;;10.15;1.20;;;9.90;99.90;;;;;;6071313;23;20022;-84
2022/12/29 07:54:46;;;;;;;9.93;1.85;;;9.90;99.90;;;;;;6071977;23;20050;-84
2022/12/29 07:57:11;;;;;;;10.95;1.92;;;9.90;99.90;;;;;;6045396;23;20019;-83
2022/12/29 07:59:37;;;;;;;16.77;2.65;;;9.90;99.90;;;;;;6071316;23;20385;-83
2022/12/29 08:02:03;;;;;;;11.60;2.22;;;9.90;99.90;;;;;;6044483;23;20014;-84
2022/12/29 08:04:29;;;;;;;13.18;1.80;;;9.90;99.90;;;;;;6044660;23;20054;-83
2022/12/29 08:06:54;;;;;;;16.17;2.75;;;9.90;99.90;;;;;;6021291;23;20030;-81
2022/12/29 08:09:20;;;;;;;15.20;2.30;;;9.90;99.90;;;;;;6045055;23;20023;-83
2022/12/29 08:11:46;;;;;;;15.98;2.88;;;9.80;99.90;;;;;;6045104;23;20468;-83
2022/12/29 08:14:11;;;;;;;11.52;1.75;;;9.80;99.90;;;;;;6070829;23;20496;-83
2022/12/29 08:16:37;;;;;;;10.70;2.28;;;9.80;99.90;;;;;;6044874;23;20015;-82
2022/12/29 08:19:04;;;;;;;18.90;2.53;;;9.80;99.90;;;;;;6045289;23;20006;-83
2022/12/29 08:21:30;;;;;;;19.15;2.67;;;9.90;99.90;;;;;;6045248;23;20445;-83
2022/12/29 08:23:57;;;;;;;14.23;1.90;;;9.90;99.90;;;;;;6070485;23;20475;-84
2022/12/29 08:26:22;;;;;;;14.32;2.40;;;9.90;99.90;;;;;;6070080;23;20015;-83
2022/12/29 08:28:48;;;;;;;15.70;2.83;;;9.80;99.90;;;;;;6070255;23;20039;-82
2022/12/29 08:31:14;;;;;;;20.42;3.55;;;9.80;99.90;;;;;;6071510;23;20078;-87
2022/12/29 08:34:01;;;;;;;22.70;4.18;;;9.90;99.90;;;;;;6045812;23;20341;-84
2022/12/29 08:36:27;;;;;;;12.57;1.88;;;9.90;99.90;;;;;;6046171;23;20015;-84
2022/12/29 08:38:52;;;;;;;15.63;2.83;;;9.90;99.90;;;;;;6070965;23;20011;-83
2022/12/29 08:41:18;;;;;;;18.02;2.75;;;10.00;99.90;;;;;;6044432;23;20118;-82
2022/12/29 08:43:48;;;;;;;20.63;3.33;;;10.00;99.90;;;;;;6044633;23;20105;-84
2022/12/29 08:46:14;;;;;;;21.38;2.67;;;10.00;99.90;;;;;;6070674;23;20030;-81
2022/12/29 08:48:40;;;;;;;17.27;2.55;;;10.00;99.90;;;;;;6045675;23;20353;-82
2022/12/29 08:51:05;;;;;;;14.85;1.90;;;10.00;99.90;;;;;;6044404;23;20046;-83
2022/12/29 08:53:31;;;;;;;16.52;2.17;;;10.00;99.90;;;;;;6045200;23;20015;-81
2022/12/29 08:55:59;;;;;;;14.05;2.47;;;10.00;99.90;;;;;;6045592;23;20017;-82
2022/12/29 08:58:25;;;;;;;13.73;2.53;;;9.90;99.90;;;;;;6070398;23;20025;-81
2022/12/29 09:00:53;;;;;;;9.90;1.90;;;9.90;99.90;;;;;;6070824;23;20032;-83
2022/12/29 09:03:19;;;;;;;10.15;2.08;;;9.80;99.90;;;;;;6046117;23;20053;-83
2022/12/29 09:05:50;;;;;;;12.15;2.55;;;9.80;99.90;;;;;;6045486;23;20023;-83
2022/12/29 09:08:17;;;;;;;9.23;1.52;;;9.70;99.90;;;;;;6045686;23;20019;-82
2022/12/29 09:10:43;;;;;;;14.50;2.08;;;9.70;99.90;;;;;;6045073;23;20014;-82
2022/12/29 09:13:10;;;;;;;12.85;2.35;;;9.70;99.90;;;;;;6045326;23;20015;-82
2022/12/29 09:15:36;;;;;;;16.27;2.70;;;9.70;99.90;;;;;;6070241;23;20011;-83
2022/12/29 09:18:01;;;;;;;11.93;2.33;;;9.70;99.90;;;;;;6070824;23;20018;-81
2022/12/29 09:20:27;;;;;;;9.40;1.95;;;9.70;99.90;;;;;;6069837;23;20019;-83
2022/12/29 09:22:53;;;;;;;20.38;2.95;;;9.70;99.90;;;;;;6044323;23;20015;-82
2022/12/29 09:25:19;;;;;;;10.27;1.60;;;9.70;99.90;;;;;;6044333;23;20046;-82
2022/12/29 09:27:47;;;;;;;16.08;2.40;;;9.70;99.90;;;;;;6022481;23;20022;-81
2022/12/29 09:30:14;;;;;;;15.10;2.60;;;9.70;99.90;;;;;;6073389;23;20015;-83
2022/12/29 09:32:40;;;;;;;11.30;2.00;;;9.80;99.90;;;;;;6046558;23;20018;-82
2022/12/29 09:35:06;;;;;;;17.42;2.70;;;9.80;99.90;;;;;;6047012;23;20086;-82
2022/12/29 09:37:32;;;;;;;17.50;2.78;;;9.80;99.90;;;;;;6072163;23;20029;-81
2022/12/29 09:39:58;;;;;;;15.20;2.15;;;9.70;99.90;;;;;;6072491;23;20433;-80
2022/12/29 09:42:32;;;;;;;14.85;1.98;;;9.70;99.90;;;;;;6046091;23;20053;-80
2022/12/29 09:45:03;;;;;;;15.05;2.22;;;9.60;99.90;;;;;;6072631;23;20425;-77
2022/12/29 09:47:29;;;;;;;15.23;2.67;;;9.60;99.90;;;;;;6046400;23;20130;-81
2022/12/29 09:50:13;;;;;;;15.10;2.28;;;9.50;99.90;;;;;;6046578;23;20463;-80
2022/12/29 09:53:00;;;;;;;17.67;2.15;;;9.40;99.90;;;;;;6047255;23;20018;-80
2022/12/29 09:55:50;;;;;;;9.38;2.13;;;9.40;99.90;;;;;;6073604;23;20015;-83
2022/12/29 09:58:39;;;;;;;16.75;2.08;;;9.30;99.90;;;;;;6030876;23;20389;-80
2022/12/29 10:01:13;;;;;;;14.25;2.63;;;9.30;99.90;;;;;;6046995;23;20441;-80
2022/12/29 10:03:48;;;;;;;13.70;2.83;;;9.30;99.90;;;;;;6073646;23;20019;-82
2022/12/29 10:06:26;;;;;;;14.18;2.10;;;9.20;99.90;;;;;;6072379;23;20022;-82
2022/12/29 10:09:17;;;;;;;12.27;2.25;;;9.20;99.90;;;;;;6072189;23;20015;-82
2022/12/29 10:12:19;;;;;;;12.75;1.85;;;9.20;99.90;;;;;;6046529;23;20318;-81
2022/12/29 10:15:00;;;;;;;13.55;2.15;;;9.10;99.90;;;;;;6022728;23;20520;-82
2022/12/29 10:17:48;;;;;;;17.10;2.70;;;9.10;99.90;;;;;;6045983;23;20445;-80
2022/12/29 10:20:51;;;;;;;7.15;1.73;;;9.00;99.90;;;;;;6046592;23;20019;-84
2022/12/29 10:23:22;;;;;;;17.77;2.38;;;9.00;99.90;;;;;;6046253;23;20019;-80
2022/12/29 10:25:49;;;;;;;10.45;1.70;;;9.10;99.90;;;;;;6045895;23;20093;-80
2022/12/29 10:28:31;;;;;;;17.65;2.65;;;9.10;99.90;;;;;;6071212;23;20429;-79
2022/12/29 10:30:59;;;;;;;17.08;2.60;;;9.10;99.90;;;;;;6071722;23;20015;-81
2022/12/29 10:33:35;;;;;;;15.65;2.38;;;9.00;99.90;;;;;;6045444;23;20370;-80
2022/12/29 10:36:12;;;;;;;10.68;1.67;;;9.00;99.90;;;;;;6070525;23;20333;-82
2022/12/29 10:38:49;;;;;;;13.70;2.10;;;8.90;99.90;;;;;;6045708;23;20095;-80
2022/12/29 10:41:27;;;;;;;9.77;1.67;;;8.90;99.90;;;;;;6045086;23;20062;-81
2022/12/29 10:43:56;;;;;;;11.15;2.42;;;8.90;99.90;;;;;;6047803;23;20375;-81
2022/12/29 10:46:32;;;;;;;15.43;3.10;;;8.80;99.90;;;;;;6071667;23;20074;-79
2022/12/29 10:48:58;;;;;;;16.67;3.35;;;8.80;99.90;;;;;;6072006;23;20010;-82
2022/12/29 10:51:27;;;;;;;17.80;2.85;;;8.70;99.90;;;;;;6045267;23;20404;-83
2022/12/29 10:54:18;;;;;;;17.30;3.00;;;8.80;99.90;;;;;;6071326;23;20086;-80
2022/12/29 10:57:07;;;;;;;15.60;3.22;;;8.70;99.90;;;;;;6071839;23;20137;-81
2022/12/29 10:59:35;;;;;;;16.00;2.88;;;8.70;99.90;;;;;;6011122;23;20019;-82
2022/12/29 11:02:10;;;;;;;20.10;3.25;;;8.70;99.90;;;;;;6072034;23;20019;-83
2022/12/29 11:04:54;;;;;;;18.73;3.05;;;8.80;99.90;;;;;;6048156;23;20128;-83
2022/12/29 11:07:21;;;;;;;15.30;3.20;;;8.70;99.90;;;;;;6089961;23;20058;-80
2022/12/29 11:09:47;;;;;;;18.52;3.25;;;8.70;99.90;;;;;;6088240;23;20054;-81
2022/12/29 11:12:30;;;;;;;21.73;3.58;;;8.70;99.90;;;;;;6050458;23;20026;-78
2022/12/29 11:15:01;;;;;;;18.80;2.85;;;8.80;99.90;;;;;;6048676;23;20062;-82
2022/12/29 11:17:27;;;;;;;18.73;3.55;;;8.80;99.90;;;;;;6047802;23;20019;-82
2022/12/29 11:19:52;;;;;;;23.90;3.60;;;8.80;99.90;;;;;;6072389;23;20091;-81
2022/12/29 11:22:27;;;;;;;19.90;3.40;;;8.80;99.90;;;;;;6046120;23;20280;-80
2022/12/29 11:25:04;;;;;;;25.77;3.90;;;9.00;99.90;;;;;;6021893;23;20058;-80
2022/12/29 11:27:30;;;;;;;34.53;5.78;;;9.00;99.90;;;;;;6045858;23;20069;-81
2022/12/29 11:29:55;;;;;;;18.90;3.30;;;9.00;99.90;;;;;;6071223;23;20422;-83
2022/12/29 11:32:27;;;;;;;21.88;3.97;;;9.00;99.90;;;;;;6022366;23;20019;-83
2022/12/29 11:34:53;;;;;;;22.30;4.35;;;9.10;99.90;;;;;;6022478;23;20015;-82
2022/12/29 11:37:34;;;;;;;27.00;3.95;;;9.20;99.90;;;;;;6071784;23;20014;-82
2022/12/29 11:40:04;;;;;;;21.08;2.92;;;9.30;99.90;;;;;;6045651;23;20019;-81
2022/12/29 11:42:35;;;;;;;26.58;4.47;;;9.40;99.90;;;;;;6045366;23;20026;-80
2022/12/29 11:45:06;;;;;;;26.73;3.75;;;9.50;99.90;;;;;;6046599;23;20073;-83
2022/12/29 11:47:33;;;;;;;28.13;4.10;;;9.40;99.90;;;;;;6045547;23;20019;-82
2022/12/29 11:50:01;;;;;;;27.20;4.50;;;9.40;99.90;;;;;;6045176;23;20023;-83
2022/12/29 11:52:32;;;;;;;29.67;4.53;;;9.40;99.90;;;;;;6045632;23;20393;-83
2022/12/29 11:55:03;;;;;;;28.65;4.32;;;9.40;99.90;;;;;;6045804;23;20053;-85
2022/12/29 11:57:31;;;;;;;24.50;4.22;;;9.30;99.90;;;;;;6070166;23;20015;-85
2022/12/29 12:00:00;;;;;;;26.23;4.53;;;9.20;99.90;;;;;;6070678;23;20011;-83
2022/12/29 12:02:32;;;;;;;25.50;3.95;;;9.20;99.90;;;;;;6071110;23;20015;-84
2022/12/29 12:05:10;;;;;;;21.80;4.20;;;9.30;99.90;;;;;;6021542;23;20046;-85
2022/12/29 12:07:40;;;;;;;30.50;5.20;;;9.40;99.90;;;;;;6043655;23;20015;-83
2022/12/29 12:10:17;;;;;;;26.90;4.57;;;9.60;99.90;;;;;;6045665;23;20011;-85
2022/12/29 12:12:46;;;;;;;23.48;4.45;;;9.70;99.90;;;;;;6070955;23;20038;-84
2022/12/29 12:15:40;;;;;;;21.63;4.38;;;9.80;99.90;;;;;;6046413;23;20015;-81
2022/12/29 12:18:21;;;;;;;21.80;4.22;;;10.00;99.90;;;;;;6045296;23;20026;-83
2022/12/29 12:20:56;;;;;;;18.45;3.22;;;10.10;99.90;;;;;;6045229;23;20015;-83
2022/12/29 12:23:28;;;;;;;21.40;3.78;;;10.00;99.90;;;;;;6045679;23;20330;-80
2022/12/29 12:26:18;;;;;;;22.90;3.72;;;9.90;99.90;;;;;;6045197;23;20019;-83
2022/12/29 12:28:44;;;;;;;23.80;3.25;;;10.00;99.90;;;;;;6045350;23;20018;-83
2022/12/29 12:31:21;;;;;;;14.32;1.90;;;10.20;99.90;;;;;;6067979;23;20019;-82
2022/12/29 12:33:53;;;;;;;24.52;3.25;;;10.30;99.90;;;;;;6069474;23;20066;-81
2022/12/29 12:36:39;;;;;;;17.23;3.25;;;10.40;99.90;;;;;;6044696;23;20010;-84
2022/12/29 12:39:19;;;;;;;19.70;2.78;;;10.50;99.90;;;;;;6070325;23;20017;-82
2022/12/29 12:42:22;;;;;;;27.65;4.75;;;10.60;99.90;;;;;;6044734;23;20022;-81
2022/12/29 12:45:35;;;;;;;26.48;4.72;;;10.70;99.90;;;;;;6070914;23;20070;-81
2022/12/29 12:48:01;;;;;;;14.20;3.80;;;10.50;99.90;;;;;;5980750;23;20026;-80
2022/12/29 12:50:53;;;;;;;26.55;4.07;;;10.50;99.90;;;;;;6044625;23;20019;-81
2022/12/29 12:53:54;;;;;;;17.23;3.03;;;10.40;99.90;;;;;;6045194;23;20110;-82
2022/12/29 12:56:52;;;;;;;14.70;2.53;;;10.40;99.90;;;;;;6007783;23;20049;-80
2022/12/29 12:59:46;;;;;;;21.52;3.80;;;10.40;99.90;;;;;;6044976;23;20015;-83
2022/12/29 13:02:27;;;;;;;13.50;2.45;;;10.50;99.90;;;;;;6044010;23;20050;-82
2022/12/29 13:05:14;;;;;;;18.30;3.38;;;10.40;99.90;;;;;;6044952;23;20166;-84
2022/12/29 13:08:08;;;;;;;12.75;2.22;;;10.20;99.90;;;;;;6044510;23;20050;-82
2022/12/29 13:10:33;;;;;;;15.70;1.98;;;10.10;99.90;;;;;;6045097;23;20086;-82
2022/12/29 13:13:30;;;;;;;12.88;2.15;;;10.00;99.90;;;;;;6044883;23;20362;-84
2022/12/29 13:16:17;;;;;;;12.85;2.65;;;10.00;99.90;;;;;;6022328;23;20011;-81
2022/12/29 13:18:59;;;;;;;13.50;2.22;;;9.90;99.90;;;;;;6045726;23;20011;-84
2022/12/29 13:21:57;;;;;;;11.50;2.38;;;9.90;99.90;;;;;;6072075;23;20017;-84
2022/12/29 13:24:54;;;;;;;15.00;2.17;;;10.00;99.90;;;;;;6045003;23;20019;-79
2022/12/29 13:27:32;;;;;;;13.25;2.33;;;10.10;99.90;;;;;;6068848;23;20019;-81
2022/12/29 13:30:11;;;;;;;11.43;1.30;;;10.10;99.90;;;;;;6068639;23;20093;-81
2022/12/29 13:32:52;;;;;;;15.10;2.30;;;10.10;99.90;;;;;;6043852;23;20094;-81
2022/12/29 13:35:26;;;;;;;16.67;3.25;;;10.00;99.90;;;;;;6044055;23;20014;-80
2022/12/29 13:38:20;;;;;;;19.33;3.95;;;10.00;99.90;;;;;;6069330;23;20307;-80
2022/12/29 13:40:50;;;;;;;19.27;3.33;;;10.00;99.90;;;;;;6053803;23;20065;-81
2022/12/29 13:43:18;;;;;;;14.80;2.30;;;9.90;99.90;;;;;;6044547;23;20011;-81
2022/12/29 13:45:45;;;;;;;17.33;3.33;;;9.90;99.90;;;;;;6020974;23;20011;-80
2022/12/29 13:48:19;;;;;;;17.08;2.22;;;10.00;99.90;;;;;;6044445;23;20011;-82
2022/12/29 13:50:54;;;;;;;18.38;2.92;;;10.00;99.90;;;;;;6044246;23;20014;-82
2022/12/29 13:53:51;;;;;;;13.55;2.13;;;9.90;99.90;;;;;;6021039;23;20026;-81
2022/12/29 13:56:20;;;;;;;16.60;2.33;;;9.80;99.90;;;;;;6020832;23;20063;-81
2022/12/29 13:59:09;;;;;;;14.95;2.45;;;9.70;99.90;;;;;;6070148;23;20011;-81
2022/12/29 14:01:41;;;;;;;15.93;2.58;;;9.70;99.90;;;;;;6069504;23;20352;-80
2022/12/29 14:04:20;;;;;;;12.82;2.53;;;9.60;99.90;;;;;;6044902;23;20018;-81
2022/12/29 14:06:58;;;;;;;17.35;2.25;;;9.60;99.90;;;;;;6044749;23;20030;-80
2022/12/29 14:09:39;;;;;;;26.00;4.07;;;9.50;99.90;;;;;;6020944;23;20086;-81
2022/12/29 14:12:22;;;;;;;13.15;2.42;;;9.50;99.90;;;;;;6020715;23;20022;-81
2022/12/29 14:14:49;;;;;;;11.95;2.55;;;9.40;99.90;;;;;;6046407;23;20083;-83
2022/12/29 14:17:20;;;;;;;19.88;2.58;;;9.40;99.90;;;;;;6072680;23;20053;-81
2022/12/29 14:19:51;;;;;;;17.48;3.42;;;9.30;99.90;;;;;;6046335;23;20066;-81
2022/12/29 14:22:26;;;;;;;13.85;2.72;;;9.30;99.90;;;;;;6071791;23;20019;-79
2022/12/29 14:24:52;;;;;;;18.48;2.72;;;9.20;99.90;;;;;;6046295;23;20026;-80
2022/12/29 14:27:18;;;;;;;13.00;1.90;;;9.20;99.90;;;;;;6046147;23;20023;-79
2022/12/29 14:29:48;;;;;;;10.20;1.90;;;9.20;99.90;;;;;;6045346;23;20025;-80
2022/12/29 14:32:20;;;;;;;7.13;1.33;;;9.20;99.90;;;;;;6045490;23;20030;-81
2022/12/29 14:34:47;;;;;;;10.15;1.80;;;9.20;99.90;;;;;;6045764;23;20015;-79
2022/12/29 14:37:28;;;;;;;12.70;2.42;;;9.20;99.90;;;;;;6045528;23;20315;-79
2022/12/29 14:40:13;;;;;;;12.95;2.10;;;9.20;99.90;;;;;;6021958;23;20050;-80
2022/12/29 14:42:40;;;;;;;12.05;1.98;;;9.20;99.90;;;;;;6045327;23;20030;-79
2022/12/29 14:45:14;;;;;;;8.70;2.08;;;9.10;99.90;;;;;;6045440;23;20074;-80
2022/12/29 14:47:43;;;;;;;13.10;1.93;;;9.10;99.90;;;;;;6070779;23;20382;-79
2022/12/29 14:50:21;;;;;;;24.63;8.05;;;9.10;99.90;;;;;;6045837;23;20255;-81
2022/12/29 14:52:57;;;;;;;17.67;2.15;;;9.10;99.90;;;;;;6071012;23;20018;-81
2022/12/29 14:55:46;;;;;;;12.68;2.15;;;9.10;99.90;;;;;;6045388;23;20019;-81
2022/12/29 14:58:17;;;;;;;13.65;2.35;;;9.10;99.90;;;;;;6046529;23;20018;-80
2022/12/29 15:00:44;;;;;;;12.05;1.83;;;9.00;99.90;;;;;;6045518;23;20046;-81
2022/12/29 15:03:16;;;;;;;13.80;2.47;;;9.00;99.90;;;;;;6045333;23;20342;-80
2022/12/29 15:05:52;;;;;;;15.10;3.35;;;9.00;99.90;;;;;;6070867;23;20011;-81
2022/12/29 15:08:22;;;;;;;10.90;1.52;;;9.10;99.90;;;;;;6044990;23;20021;-81
2022/12/29 15:11:29;;;;;;;11.77;1.70;;;9.00;99.90;;;;;;6045173;23;20066;-80
2022/12/29 15:13:55;;;;;;;12.98;1.67;;;9.00;99.90;;;;;;6044014;23;20015;-79
2022/12/29 15:16:35;;;;;;;15.43;1.70;;;9.00;99.90;;;;;;6070838;23;20011;-80
2022/12/29 15:19:01;;;;;;;16.90;2.47;;;9.00;99.90;;;;;;6045494;23;20061;-81
2022/12/29 15:21:33;;;;;;;13.50;2.25;;;9.00;99.90;;;;;;6044841;23;20019;-81
2022/12/29 15:23:59;;;;;;;15.07;2.67;;;8.90;99.90;;;;;;6044323;23;20018;-80
2022/12/29 15:26:46;;;;;;;9.70;1.73;;;8.90;99.90;;;;;;6020151;23;20015;-80
2022/12/29 15:30:07;;;;;;;15.43;2.33;;;8.90;99.90;;;;;;6070414;23;20011;-78
2022/12/29 15:32:58;;;;;;;14.82;2.45;;;8.90;99.90;;;;;;5932167;24;20104;-79
2022/12/29 15:35:34;;;;;;;20.08;3.13;;;8.90;99.90;;;;;;5929454;24;20020;-79
2022/12/29 15:38:11;;;;;;;17.23;2.78;;;8.90;99.90;;;;;;6024831;23;20382;-80
2022/12/29 15:40:37;;;;;;;13.85;2.67;;;8.90;99.90;;;;;;6045524;23;20011;-79
2022/12/29 15:43:27;;;;;;;16.15;2.50;;;8.90;99.90;;;;;;6044532;23;20341;-81
2022/12/29 15:45:54;;;;;;;14.43;2.08;;;8.90;99.90;;;;;;6071248;23;20011;-80
2022/12/29 15:48:24;;;;;;;8.50;2.20;;;8.90;99.90;;;;;;6070787;23;20011;-78
2022/12/29 15:50:50;;;;;;;16.77;2.50;;;8.90;99.90;;;;;;6070351;23;20446;-79
2022/12/29 15:53:29;;;;;;;14.02;2.42;;;9.00;99.90;;;;;;6070508;23;20038;-80
2022/12/29 15:55:58;;;;;;;16.23;2.42;;;9.00;99.90;;;;;;6069899;23;20111;-80
2022/12/29 15:58:26;;;;;;;17.65;4.15;;;9.00;99.90;;;;;;6069624;23;20076;-80
2022/12/29 16:00:56;;;;;;;11.55;2.05;;;9.00;99.90;;;;;;6045056;23;20019;-79
2022/12/29 16:03:24;;;;;;;24.65;4.15;;;9.10;99.90;;;;;;6070602;23;20011;-81
2022/12/29 16:06:30;;;;;;;11.70;2.95;;;9.10;99.90;;;;;;6044865;23;20015;-79
2022/12/29 16:09:14;;;;;;;18.40;2.80;;;9.10;99.90;;;;;;6044456;23;20015;-79
2022/12/29 16:11:44;;;;;;;14.77;2.33;;;9.10;99.90;;;;;;6044659;23;20010;-80
2022/12/29 16:14:16;;;;;;;15.73;2.30;;;9.10;99.90;;;;;;6070794;23;20034;-80
2022/12/29 16:16:44;;;;;;;9.63;2.05;;;9.10;99.90;;;;;;6070733;23;20042;-79
2022/12/29 16:19:22;;;;;;;16.30;2.95;;;9.10;99.90;;;;;;6045337;23;20042;-82
2022/12/29 16:21:48;;;;;;;7.82;1.77;;;9.10;99.90;;;;;;6045217;23;20018;-81
2022/12/29 16:24:16;;;;;;;11.35;2.63;;;9.00;99.90;;;;;;6045014;23;20066;-80
2022/12/29 16:26:59;;;;;;;14.15;2.00;;;9.00;99.90;;;;;;6021332;23;20022;-79
2022/12/29 16:29:29;;;;;;;9.20;1.33;;;8.90;99.90;;;;;;6022091;23;20046;-80
2022/12/29 16:32:02;;;;;;;6.13;1.33;;;8.80;99.90;;;;;;6045592;23;20026;-82
2022/12/29 16:34:46;;;;;;;7.93;1.27;;;8.70;99.90;;;;;;6045209;23;20350;-80
2022/12/29 16:37:32;;;;;;;5.88;1.60;;;8.60;99.90;;;;;;6044957;23;20493;-80
2022/12/29 16:40:17;;;;;;;5.18;1.17;;;8.50;99.90;;;;;;6021970;23;20019;-82
2022/12/29 16:42:42;;;;;;;9.00;3.38;;;8.40;99.90;;;;;;6071499;23;20018;-79
2022/12/29 16:45:39;;;;;;;8.27;1.83;;;8.30;99.90;;;;;;6044758;23;20390;-82
2022/12/29 16:48:11;;;;;;;7.80;1.13;;;8.20;99.90;;;;;;6045935;23;20082;-81
2022/12/29 16:50:39;;;;;;;5.28;1.25;;;8.10;99.90;;;;;;6071390;23;20035;-81
2022/12/29 16:53:06;;;;;;;8.73;1.77;;;8.00;99.90;;;;;;6045391;23;20019;-78
2022/12/29 16:55:32;;;;;;;6.18;1.40;;;8.00;99.90;;;;;;6046008;23;20022;-82
2022/12/29 16:57:59;;;;;;;8.88;1.90;;;8.00;99.90;;;;;;6046292;23;20049;-80
2022/12/29 17:00:35;;;;;;;7.82;1.40;;;8.00;99.90;;;;;;6071240;23;20015;-80
2022/12/29 17:03:01;;;;;;;4.20;1.33;;;8.00;99.90;;;;;;6045843;23;20066;-80
2022/12/29 17:05:27;;;;;;;9.82;1.85;;;8.00;99.90;;;;;;6071671;23;20026;-81
2022/12/29 17:07:54;;;;;;;6.78;1.90;;;8.00;99.90;;;;;;6071886;23;20011;-80
2022/12/29 17:10:20;;;;;;;10.55;1.95;;;8.00;99.90;;;;;;6071109;23;20018;-80
2022/12/29 17:12:48;;;;;;;13.07;2.63;;;8.00;99.90;;;;;;6070303;23;20015;-80